Westley, California
Current Conditions -  °F | °C
As of 4:08 AM on Sunday 21 Dec 2014 (Local Time) from KMOD Reporting Station
Haze Haze  
Wind Chill: 55°   Ceiling: 6000
Heat Index: 55°   Visibility: 1.7mi
Dew Point: 53°   Wind: 3mph
Humidity: 93%   Direction: 210°SSW
Pressure: 30.24"   Gusts: NA
Location:  37.55°N, 121.2°W
Report Text: KMOD 211208Z AUTO 21003KT 1 3/4SM BR BKN060 13/12 A3024 RMK AO2 T01280117
Loading
Personal Weather Stations






























Interactive Weather Map New forecast layout! Learn more

10-Day Weather Forecast

Advertisements
Track Severe Weather on mobile